Time;durP1;ratioP1;P1;durP2;ratioP2;P2;SDS_P1;SDS_P2;PMS_P1;PMS_P2;Temp;Humidity;BMP_temperature;BMP_pressure;BME280_temperature;BME280_humidity;BME280_pressure;Samples;Min_cycle;Max_cycle;Signal;HPM_P1;HPM_P2
2022/07/03 00:00:57;;;;;;;9.43;4.25;;;;;;;25.85;55.09;100530.53;2108336;28;20101;-71
2022/07/03 00:02:19;;;;;;;8.02;4.28;;;;;;;25.82;55.28;100527.97;2107989;28;20044;-72
2022/07/03 00:03:42;;;;;;;11.02;4.63;;;;;;;25.80;55.47;100533.44;2112083;28;20564;-71
2022/07/03 00:05:04;;;;;;;7.75;3.90;;;;;;;25.78;55.39;100526.38;2109609;28;20146;-72
2022/07/03 00:06:27;;;;;;;10.05;4.47;;;;;;;25.75;55.66;100529.22;2110567;28;20048;-72
2022/07/03 00:07:50;;;;;;;9.95;4.60;;;;;;;25.76;55.48;100526.47;2099092;28;20048;-72
2022/07/03 00:09:11;;;;;;;9.75;4.03;;;;;;;25.79;55.74;100533.56;2102934;28;20151;-72
2022/07/03 00:10:35;;;;;;;9.00;4.38;;;;;;;25.79;55.71;100528.16;2101307;28;20055;-72
2022/07/03 00:11:58;;;;;;;8.38;4.43;;;;;;;25.78;55.44;100519.16;2113502;28;20122;-72
2022/07/03 00:13:19;;;;;;;9.60;3.72;;;;;;;25.78;55.69;100523.69;2101728;28;20048;-72
2022/07/03 00:14:42;;;;;;;9.73;3.88;;;;;;;25.76;55.75;100525.59;2105581;28;20064;-71
2022/07/03 00:16:05;;;;;;;6.75;3.83;;;;;;;25.74;55.86;100517.53;2113066;28;20565;-71
2022/07/03 00:17:27;;;;;;;10.93;4.30;;;;;;;25.75;55.65;100521.13;2110489;28;20055;-72
2022/07/03 00:18:50;;;;;;;9.10;3.92;;;;;;;25.74;55.63;100519.38;2109171;28;20142;-71
2022/07/03 00:20:12;;;;;;;9.18;4.03;;;;;;;25.71;55.97;100511.41;2110058;28;20124;-72
2022/07/03 00:21:41;;;;;;;10.27;4.07;;;;;;;25.71;55.74;100517.72;2107601;28;20126;-72
2022/07/03 00:23:10;;;;;;;9.93;4.43;;;;;;;25.72;55.87;100513.19;2098209;28;20233;-72
2022/07/03 00:24:38;;;;;;;7.85;3.75;;;;;;;25.68;55.97;100504.34;2107333;28;20063;-72
2022/07/03 00:26:03;;;;;;;8.82;4.20;;;;;;;25.65;56.13;100507.22;2111731;28;20522;-72
2022/07/03 00:27:26;;;;;;;8.25;4.85;;;;;;;25.65;56.06;100509.03;2101250;28;20051;-72
2022/07/03 00:28:49;;;;;;;10.07;4.28;;;;;;;25.62;56.43;100510.06;2109302;28;20054;-72
2022/07/03 00:30:12;;;;;;;7.95;3.92;;;;;;;25.62;56.50;100503.75;2111913;28;20047;-72
2022/07/03 00:31:36;;;;;;;9.15;4.38;;;;;;;25.61;56.58;100505.59;2109451;28;20487;-72
2022/07/03 00:32:59;;;;;;;9.32;3.80;;;;;;;25.60;56.61;100503.00;2112260;28;20150;-71
2022/07/03 00:34:25;;;;;;;9.88;3.88;;;;;;;25.60;56.44;100497.59;2112012;28;20522;-72
2022/07/03 00:35:49;;;;;;;7.85;4.00;;;;;;;25.59;56.47;100493.13;2104111;28;20389;-72
2022/07/03 00:37:12;;;;;;;9.52;4.68;;;;;;;25.60;56.67;100500.28;2103086;28;20052;-72
2022/07/03 00:38:34;;;;;;;9.73;4.63;;;;;;;25.60;56.69;100500.28;2108048;28;20044;-72
2022/07/03 00:39:58;;;;;;;9.30;4.40;;;;;;;25.60;56.43;100503.84;2114122;27;20079;-72
2022/07/03 00:41:27;;;;;;;8.75;4.20;;;;;;;25.59;56.60;100502.13;2121716;27;20066;-72
2022/07/03 00:42:52;;;;;;;7.70;4.30;;;;;;;25.60;56.64;100505.69;2118762;27;20051;-72
2022/07/03 00:44:13;;;;;;;8.00;4.32;;;;;;;25.59;56.77;100495.81;2110366;28;20111;-72
2022/07/03 00:45:36;;;;;;;8.73;3.85;;;;;;;25.59;56.54;100501.22;2111775;28;20051;-72
2022/07/03 00:47:02;;;;;;;10.40;3.92;;;;;;;25.61;56.50;100504.72;2119873;27;20051;-72
2022/07/03 00:48:24;;;;;;;11.30;4.28;;;;;;;25.61;56.78;100504.72;2113300;28;20047;-72
2022/07/03 00:49:49;;;;;;;9.13;4.30;;;;;;;25.61;56.61;100493.91;2110751;28;20067;-72
2022/07/03 00:51:16;;;;;;;6.88;3.75;;;;;;;25.63;56.71;100495.59;2110131;27;20121;-72
2022/07/03 00:52:38;;;;;;;9.70;4.07;;;;;;;25.66;56.44;100494.56;2108474;28;20043;-72
2022/07/03 00:54:04;;;;;;;7.38;3.90;;;;;;;25.70;56.58;100491.63;2101799;28;20563;-72
2022/07/03 00:55:28;;;;;;;13.23;4.13;;;;;;;25.71;56.34;100495.19;2106578;28;20046;-73
2022/07/03 00:56:55;;;;;;;7.50;3.97;;;;;;;25.70;56.22;100498.84;2112053;28;20082;-72
2022/07/03 00:58:18;;;;;;;9.57;4.13;;;;;;;25.68;56.37;100488.09;2106066;28;20079;-72
2022/07/03 00:59:40;;;;;;;9.38;3.85;;;;;;;25.66;56.61;100495.44;2105127;28;20078;-73
2022/07/03 01:01:02;;;;;;;9.93;3.67;;;;;;;25.63;56.78;100486.59;2110673;28;20465;-72
2022/07/03 01:02:39;;;;;;;9.23;4.00;;;;;;;25.64;56.71;100493.75;2109663;28;20071;-72
2022/07/03 01:04:19;;;;;;;10.38;4.50;;;;;;;25.65;56.42;100492.81;2111527;28;20043;-72
2022/07/03 01:05:46;;;;;;;9.00;3.67;;;;;;;25.67;56.38;100499.00;2113991;28;20048;-72
2022/07/03 01:07:18;;;;;;;7.60;3.63;;;;;;;25.67;56.39;100496.28;2111473;28;20067;-73
2022/07/03 01:08:45;;;;;;;10.88;4.30;;;;;;;25.64;56.56;100491.94;2113032;28;20147;-72
2022/07/03 01:10:12;;;;;;;10.40;3.85;;;;;;;25.65;56.44;100493.69;2104856;28;20070;-72
2022/07/03 01:11:41;;;;;;;9.30;4.10;;;;;;;25.69;56.48;100491.69;2099765;28;20125;-72
2022/07/03 01:13:11;;;;;;;11.00;4.10;;;;;;;25.69;56.57;100489.84;2109313;28;20044;-72
2022/07/03 01:14:42;;;;;;;10.15;4.03;;;;;;;25.67;56.55;100494.47;2111425;28;20615;-72
2022/07/03 01:16:07;;;;;;;8.90;4.05;;;;;;;25.65;56.54;100484.69;2120749;27;20099;-73
2022/07/03 01:17:39;;;;;;;7.90;4.10;;;;;;;25.63;56.32;100494.69;2097609;28;20044;-72
2022/07/03 01:19:21;;;;;;;10.77;5.05;;;;;;;25.61;56.67;100492.06;2110809;27;20071;-73
2022/07/03 01:20:49;;;;;;;7.93;4.22;;;;;;;25.60;56.57;100484.06;2105708;28;20060;-73
2022/07/03 01:22:29;;;;;;;9.77;4.07;;;;;;;25.61;56.62;100489.38;2115341;27;20078;-73
2022/07/03 01:24:29;;;;;;;8.63;3.88;;;;;;;25.63;56.62;100492.88;2112734;28;20059;-72
2022/07/03 01:25:55;;;;;;;7.93;4.07;;;;;;;25.63;56.90;100492.88;2105787;28;20082;-72
2022/07/03 01:27:28;;;;;;;8.57;4.32;;;;;;;25.64;56.69;100480.22;2095219;28;20048;-72
2022/07/03 01:28:51;;;;;;;11.80;4.75;;;;;;;25.63;56.87;100486.59;2107161;28;20051;-73
2022/07/03 01:30:12;;;;;;;11.80;5.28;;;;;;;25.59;57.12;100479.59;2113328;27;20046;-72
2022/07/03 01:31:38;;;;;;;8.95;4.50;;;;;;;25.58;56.97;100478.72;2109411;28;20455;-72
2022/07/03 01:33:03;;;;;;;9.00;4.75;;;;;;;25.61;56.99;100483.09;2105877;28;20554;-72
2022/07/03 01:34:30;;;;;;;16.48;4.43;;;;;;;25.62;57.05;100491.13;2111746;28;20044;-72
2022/07/03 01:36:06;;;;;;;12.23;4.53;;;;;;;25.66;57.11;100486.44;2095005;28;20396;-73
2022/07/03 01:37:31;;;;;;;9.45;4.05;;;;;;;25.62;57.18;100491.13;2109862;28;20032;-72
2022/07/03 01:38:56;;;;;;;9.07;5.05;;;;;;;25.62;57.10;100487.53;2110448;28;20085;-72
2022/07/03 01:40:18;;;;;;;10.13;4.20;;;;;;;25.65;57.36;100492.81;2112630;27;20521;-73
2022/07/03 01:41:45;;;;;;;9.48;4.53;;;;;;;25.70;57.01;100482.63;2112425;27;20205;-72
2022/07/03 01:43:10;;;;;;;7.07;3.65;;;;;;;25.69;57.01;100488.97;2100868;28;20055;-72
2022/07/03 01:44:33;;;;;;;8.73;4.10;;;;;;;25.69;57.15;100487.16;2102954;28;20040;-72
2022/07/03 01:45:58;;;;;;;8.60;4.15;;;;;;;25.70;57.30;100485.31;2107611;28;20059;-72
2022/07/03 01:47:22;;;;;;;9.48;4.35;;;;;;;25.70;57.35;100482.63;2110653;28;20064;-72
2022/07/03 01:48:46;;;;;;;10.15;4.28;;;;;;;25.72;57.33;100491.53;2107534;28;20075;-72
2022/07/03 01:50:11;;;;;;;7.47;3.92;;;;;;;25.71;57.47;100485.25;2105477;28;20119;-73
2022/07/03 01:51:36;;;;;;;13.48;3.80;;;;;;;25.72;57.15;100488.84;2101450;28;20047;-72
2022/07/03 01:53:03;;;;;;;8.43;4.78;;;;;;;25.70;57.27;100493.44;2105510;28;20499;-72
2022/07/03 01:54:27;;;;;;;14.15;4.15;;;;;;;25.68;57.23;100488.09;2109427;28;20490;-72
2022/07/03 01:55:51;;;;;;;6.97;3.92;;;;;;;25.66;57.42;100484.63;2110812;28;20499;-72
2022/07/03 01:57:16;;;;;;;10.52;4.32;;;;;;;25.65;57.60;100484.69;2104571;28;20049;-72
2022/07/03 01:58:38;;;;;;;10.02;4.63;;;;;;;25.63;57.52;100489.28;2098978;28;20059;-72
2022/07/03 02:00:01;;;;;;;12.82;3.83;;;;;;;25.62;57.72;100490.25;2098648;28;20132;-72
2022/07/03 02:01:42;;;;;;;12.48;4.30;;;;;;;25.63;57.80;100481.19;2107941;28;20051;-72
2022/07/03 02:03:06;;;;;;;11.98;3.75;;;;;;;25.60;57.75;100478.66;2111075;28;20777;-73
2022/07/03 02:04:33;;;;;;;11.50;4.22;;;;;;;25.59;57.77;100479.59;2102664;28;20052;-73
2022/07/03 02:06:03;;;;;;;7.50;3.72;;;;;;;25.60;58.11;100476.78;2109743;28;20093;-73
2022/07/03 02:07:35;;;;;;;7.53;4.10;;;;;;;25.61;58.07;100475.84;2112470;28;20051;-73
2022/07/03 02:09:03;;;;;;;10.45;3.97;;;;;;;25.61;58.11;100483.09;2103488;28;20040;-73
2022/07/03 02:10:28;;;;;;;6.15;3.78;;;;;;;25.59;58.13;100477.78;2100744;28;20605;-73
2022/07/03 02:11:52;;;;;;;9.95;4.28;;;;;;;25.59;57.89;100480.47;2110997;27;21788;-72
2022/07/03 02:13:24;;;;;;;11.63;4.18;;;;;;;25.59;58.17;100488.59;2112013;28;20138;-73
2022/07/03 02:14:57;;;;;;;8.35;4.07;;;;;;;25.59;58.06;100490.41;2112338;28;20108;-72
2022/07/03 02:16:22;;;;;;;9.23;4.20;;;;;;;25.58;58.27;100494.94;2105272;28;20131;-72
2022/07/03 02:17:46;;;;;;;7.43;3.65;;;;;;;25.58;57.96;100494.06;2113771;27;20053;-73
2022/07/03 02:19:13;;;;;;;11.27;3.75;;;;;;;25.58;58.15;100481.44;2112552;28;20044;-72
2022/07/03 02:20:36;;;;;;;9.32;4.30;;;;;;;25.58;58.04;100483.25;2103334;28;20546;-72
2022/07/03 02:21:58;;;;;;;9.23;3.85;;;;;;;25.57;58.27;100486.88;2108908;28;20051;-72
2022/07/03 02:23:26;;;;;;;10.07;4.75;;;;;;;25.59;58.22;100488.59;2102238;28;20451;-72
2022/07/03 02:24:48;;;;;;;11.50;3.92;;;;;;;25.57;58.24;100487.78;2101906;28;20469;-72
2022/07/03 02:26:15;;;;;;;9.05;4.35;;;;;;;25.56;58.23;100480.59;2106547;27;20052;-72
2022/07/03 02:27:44;;;;;;;8.90;3.75;;;;;;;25.56;58.09;100488.69;2095126;28;20040;-72
2022/07/03 02:29:11;;;;;;;8.98;4.32;;;;;;;25.54;58.14;100481.59;2101039;28;20212;-72
2022/07/03 02:30:37;;;;;;;7.05;3.97;;;;;;;25.54;58.13;100478.91;2103571;28;20043;-72
2022/07/03 02:32:00;;;;;;;10.90;4.25;;;;;;;25.56;58.11;100482.41;2102399;28;20051;-71
2022/07/03 02:33:28;;;;;;;10.60;4.47;;;;;;;25.55;58.02;100489.66;2105649;28;20039;-72
2022/07/03 02:34:59;;;;;;;9.10;5.03;;;;;;;25.55;58.19;100486.06;2103607;28;20052;-72
2022/07/03 02:36:23;;;;;;;10.20;4.40;;;;;;;25.53;58.33;100483.47;2111936;28;20047;-72
2022/07/03 02:37:49;;;;;;;10.18;4.50;;;;;;;25.50;58.10;100480.91;2110733;28;20499;-73
2022/07/03 02:39:16;;;;;;;9.15;4.03;;;;;;;25.49;58.29;100480.97;2110439;28;20059;-73
2022/07/03 02:40:47;;;;;;;8.80;3.90;;;;;;;25.47;58.17;100475.63;2110308;28;20557;-72
2022/07/03 02:42:17;;;;;;;10.45;5.25;;;;;;;25.47;58.27;100485.59;2107719;28;20054;-72
2022/07/03 02:43:50;;;;;;;10.75;3.95;;;;;;;25.44;58.45;100477.63;2108676;28;20236;-72
2022/07/03 02:45:15;;;;;;;10.63;4.03;;;;;;;25.43;58.65;100479.47;2112457;28;20136;-72
2022/07/03 02:46:50;;;;;;;8.02;4.47;;;;;;;25.44;58.49;100480.34;2104830;28;20143;-72
2022/07/03 02:48:22;;;;;;;10.10;4.68;;;;;;;25.44;58.71;100474.94;2108581;28;20062;-72
2022/07/03 02:49:53;;;;;;;11.18;3.90;;;;;;;25.41;58.62;100476.81;2111417;28;20055;-72
2022/07/03 02:51:25;;;;;;;9.77;4.13;;;;;;;25.43;58.63;100476.75;2110885;28;20074;-72
2022/07/03 02:52:58;;;;;;;9.00;4.30;;;;;;;25.41;58.57;100479.53;2107788;28;20086;-72
2022/07/03 02:54:19;;;;;;;9.90;3.85;;;;;;;25.42;58.64;100480.41;2111397;28;20468;-72
2022/07/03 02:55:43;;;;;;;11.65;5.05;;;;;;;25.42;58.60;100478.56;2112430;28;20054;-72
2022/07/03 02:57:07;;;;;;;9.13;4.13;;;;;;;25.43;58.87;100482.16;2101327;28;20067;-72
2022/07/03 02:59:00;;;;;;;9.43;3.92;;;;;;;25.41;58.99;100486.75;2104366;28;20039;-72
2022/07/03 03:00:26;;;;;;;11.77;4.10;;;;;;;25.39;59.09;100488.69;2112146;28;20055;-72
2022/07/03 03:01:55;;;;;;;11.60;4.28;;;;;;;25.39;59.24;100483.28;2112177;28;20078;-72
2022/07/03 03:03:21;;;;;;;10.75;4.47;;;;;;;25.38;59.02;100481.53;2108479;28;20046;-72
2022/07/03 03:04:48;;;;;;;9.98;3.90;;;;;;;25.37;59.13;100479.75;2110577;28;20139;-73
2022/07/03 03:06:14;;;;;;;9.65;4.00;;;;;;;25.36;59.16;100478.88;2110634;28;20043;-72
2022/07/03 03:07:46;;;;;;;8.73;4.47;;;;;;;25.34;59.30;100479.91;2113162;28;20436;-72
2022/07/03 03:09:15;;;;;;;12.88;4.40;;;;;;;25.32;59.63;100476.44;2104640;28;20048;-72
2022/07/03 03:10:37;;;;;;;11.77;4.20;;;;;;;25.34;59.28;100479.91;2104274;28;20071;-72
2022/07/03 03:12:02;;;;;;;9.98;3.88;;;;;;;25.34;59.25;100469.97;2110694;28;20138;-72
2022/07/03 03:13:30;;;;;;;9.93;4.35;;;;;;;25.36;59.24;100472.59;2110257;28;20047;-72
2022/07/03 03:15:01;;;;;;;9.88;4.32;;;;;;;25.37;59.32;100477.94;2111618;28;20154;-72
2022/07/03 03:16:26;;;;;;;14.25;4.40;;;;;;;25.38;59.35;100470.72;2110842;28;20147;-72
2022/07/03 03:17:51;;;;;;;13.77;4.38;;;;;;;25.39;59.35;100456.25;2109004;28;20050;-72
2022/07/03 03:19:14;;;;;;;9.20;3.97;;;;;;;25.40;59.19;100469.66;2106750;28;20051;-72
2022/07/03 03:20:38;;;;;;;11.35;4.07;;;;;;;25.40;59.25;100475.06;2109158;28;20139;-73
2022/07/03 03:22:11;;;;;;;11.00;4.10;;;;;;;25.41;59.33;100471.41;2094152;28;20139;-72
2022/07/03 03:23:48;;;;;;;7.13;4.10;;;;;;;25.45;59.31;100474.84;2109084;28;20039;-72
2022/07/03 03:25:11;;;;;;;11.13;4.13;;;;;;;25.48;59.11;100474.69;2106864;28;20043;-72
2022/07/03 03:26:34;;;;;;;10.15;3.35;;;;;;;25.52;59.08;100470.00;2096406;28;20119;-72
2022/07/03 03:27:55;;;;;;;8.07;4.10;;;;;;;25.55;59.00;100472.53;2101759;28;20094;-72
2022/07/03 03:29:19;;;;;;;9.10;3.92;;;;;;;25.57;59.29;100474.25;2101723;28;20051;-73
2022/07/03 03:30:40;;;;;;;8.27;3.80;;;;;;;25.62;59.38;100482.13;2109599;28;20138;-72
2022/07/03 03:32:06;;;;;;;8.02;3.80;;;;;;;25.66;59.05;100470.22;2106579;28;20134;-72
2022/07/03 03:33:29;;;;;;;10.10;4.13;;;;;;;25.69;59.35;100470.94;2118070;27;20051;-72
2022/07/03 03:34:50;;;;;;;9.43;4.22;;;;;;;25.75;59.21;100469.72;2112899;28;20040;-72
2022/07/03 03:36:15;;;;;;;10.65;4.45;;;;;;;25.82;59.13;100475.69;2110296;28;20053;-72
2022/07/03 03:37:38;;;;;;;16.08;3.95;;;;;;;25.87;59.03;100473.63;2110238;28;20048;-72
2022/07/03 03:39:01;;;;;;;10.20;3.90;;;;;;;25.91;58.84;100476.09;2107301;28;20074;-73
2022/07/03 03:40:22;;;;;;;7.57;3.50;;;;;;;25.96;58.91;100470.44;2108429;28;20048;-72
2022/07/03 03:41:44;;;;;;;8.07;4.00;;;;;;;25.99;59.01;100471.16;2108434;28;20043;-72
2022/07/03 03:43:06;;;;;;;10.13;4.32;;;;;;;26.07;58.94;100476.16;2109412;28;20124;-73
2022/07/03 03:44:29;;;;;;;9.65;4.20;;;;;;;26.13;58.60;100479.41;2101884;28;20568;-72
2022/07/03 03:45:51;;;;;;;7.60;3.45;;;;;;;26.21;58.51;100479.00;2103846;28;20040;-72
2022/07/03 03:47:15;;;;;;;10.98;3.50;;;;;;;26.29;58.53;100476.81;2110552;28;20537;-72
2022/07/03 03:48:37;;;;;;;9.20;3.88;;;;;;;26.35;58.45;100481.88;2109413;28;20055;-72
2022/07/03 03:50:00;;;;;;;8.70;3.60;;;;;;;26.44;58.05;100485.94;2107306;28;20414;-72
2022/07/03 03:51:23;;;;;;;8.43;3.70;;;;;;;26.52;58.20;100481.84;2100800;28;20158;-72
2022/07/03 03:52:44;;;;;;;10.45;3.70;;;;;;;26.62;58.00;100482.22;2099644;28;20135;-72
2022/07/03 03:54:07;;;;;;;10.70;4.03;;;;;;;26.72;57.87;100483.44;2107042;28;20438;-73
2022/07/03 03:55:29;;;;;;;11.70;4.00;;;;;;;26.80;57.94;100486.59;2107656;28;20071;-72
2022/07/03 03:56:52;;;;;;;9.68;3.85;;;;;;;26.87;57.68;100477.19;2108247;28;20137;-72
2022/07/03 03:58:17;;;;;;;10.70;4.20;;;;;;;26.96;57.33;100482.13;2109947;28;20063;-72
2022/07/03 03:59:39;;;;;;;10.07;4.15;;;;;;;27.05;57.09;100479.81;2108755;28;20044;-72
2022/07/03 04:01:03;;;;;;;9.38;4.13;;;;;;;27.11;57.09;100483.06;2103959;28;20087;-73
2022/07/03 04:02:28;;;;;;;9.88;3.65;;;;;;;27.19;56.89;100480.78;2113262;28;20139;-73
2022/07/03 04:03:50;;;;;;;8.65;3.83;;;;;;;27.29;56.96;100478.44;2110560;28;20039;-73
2022/07/03 04:05:11;;;;;;;14.70;3.80;;;;;;;27.42;56.72;100482.19;2105572;28;20044;-72
2022/07/03 04:06:34;;;;;;;7.40;3.80;;;;;;;27.53;56.37;100479.75;2103742;28;20043;-72
2022/07/03 04:07:58;;;;;;;9.40;3.80;;;;;;;27.67;56.35;100487.94;2112119;28;20044;-72
2022/07/03 04:09:20;;;;;;;9.68;4.20;;;;;;;27.81;56.14;100491.66;2114439;28;20479;-73
2022/07/03 04:10:42;;;;;;;11.40;4.22;;;;;;;27.90;55.74;100482.94;2109389;27;20089;-73
2022/07/03 04:12:05;;;;;;;6.28;3.85;;;;;;;28.01;55.50;100494.06;2112331;27;20139;-73
2022/07/03 04:13:28;;;;;;;8.52;3.60;;;;;;;28.15;55.41;100488.69;2112326;28;20044;-72
2022/07/03 04:14:49;;;;;;;12.13;3.45;;;;;;;28.30;55.33;100492.28;2112227;28;20127;-73
2022/07/03 04:16:12;;;;;;;10.93;4.47;;;;;;;28.43;55.07;100493.25;2111357;28;20142;-73
2022/07/03 04:17:36;;;;;;;6.90;3.63;;;;;;;28.57;55.08;100495.09;2112178;28;20158;-73
2022/07/03 04:18:59;;;;;;;8.60;3.72;;;;;;;28.70;54.88;100487.91;2112471;28;20055;-72
2022/07/03 04:20:21;;;;;;;7.28;3.38;;;;;;;28.82;54.53;100482.59;2111740;28;20050;-72
2022/07/03 04:21:44;;;;;;;10.68;3.50;;;;;;;28.93;54.50;100482.81;2102214;28;20120;-73
2022/07/03 04:23:05;;;;;;;10.43;3.85;;;;;;;29.07;54.25;100487.34;2101805;28;20051;-73
2022/07/03 04:24:27;;;;;;;9.73;3.75;;;;;;;29.16;53.89;100481.28;2108681;28;20055;-72
2022/07/03 04:25:50;;;;;;;11.90;4.22;;;;;;;29.29;53.85;100490.38;2110732;28;20071;-73
2022/07/03 04:27:13;;;;;;;9.50;3.75;;;;;;;29.44;53.36;100493.09;2111184;28;20419;-73
2022/07/03 04:28:35;;;;;;;8.00;3.63;;;;;;;29.56;53.17;100492.25;2111226;28;20135;-73
2022/07/03 04:29:58;;;;;;;8.73;3.85;;;;;;;29.69;52.69;100487.72;2112149;28;20142;-73
2022/07/03 04:31:20;;;;;;;10.13;3.83;;;;;;;29.81;52.38;100488.72;2109610;28;20063;-73
2022/07/03 04:32:44;;;;;;;9.73;3.72;;;;;;;29.95;51.80;100488.69;2109541;28;20479;-73
2022/07/03 04:34:07;;;;;;;8.25;3.58;;;;;;;30.13;51.65;100490.13;2103187;28;20056;-73
2022/07/03 04:35:29;;;;;;;9.38;3.42;;;;;;;30.26;51.17;100488.28;2103323;28;20139;-73
2022/07/03 04:36:52;;;;;;;13.02;3.72;;;;;;;30.36;50.74;100499.41;2107456;28;20510;-73
2022/07/03 04:38:14;;;;;;;12.65;3.95;;;;;;;30.52;50.21;100502.84;2110685;28;20054;-73
2022/07/03 04:39:36;;;;;;;8.77;3.92;;;;;;;30.59;49.81;100500.56;2108345;28;20487;-73
2022/07/03 04:40:58;;;;;;;9.45;3.35;;;;;;;30.66;49.66;100502.69;2100504;28;20040;-72
2022/07/03 04:42:21;;;;;;;9.70;4.18;;;;;;;30.81;49.08;100509.78;2110212;28;20055;-73
2022/07/03 04:43:42;;;;;;;8.35;3.80;;;;;;;30.99;48.71;100504.84;2112029;28;20043;-73
2022/07/03 04:45:05;;;;;;;8.02;3.70;;;;;;;31.14;48.16;100502.88;2109104;28;20051;-73
2022/07/03 04:46:28;;;;;;;9.25;3.35;;;;;;;31.21;48.14;100509.63;2109526;28;20056;-73
2022/07/03 04:47:52;;;;;;;13.05;4.28;;;;;;;31.39;47.87;100507.38;2111100;28;20134;-73
2022/07/03 04:49:13;;;;;;;9.57;3.65;;;;;;;31.57;47.32;100503.28;2114632;28;20044;-73
2022/07/03 04:50:36;;;;;;;7.88;3.35;;;;;;;31.75;47.11;100511.94;2111743;28;20047;-73
2022/07/03 04:51:58;;;;;;;8.68;3.60;;;;;;;31.94;46.73;100504.94;2109488;28;20098;-73
2022/07/03 04:53:20;;;;;;;12.23;4.40;;;;;;;32.11;46.38;100503.63;2108558;28;20042;-73
2022/07/03 04:54:42;;;;;;;7.13;3.17;;;;;;;32.22;45.95;100509.16;2105935;28;20051;-73
2022/07/03 04:56:05;;;;;;;10.35;3.65;;;;;;;32.30;45.56;100522.19;2108485;28;20059;-73
2022/07/03 04:57:28;;;;;;;8.98;3.85;;;;;;;32.36;45.60;100513.53;2100420;28;20097;-73
2022/07/03 04:58:50;;;;;;;8.30;3.38;;;;;;;32.48;45.49;100522.63;2105462;28;20518;-73
2022/07/03 05:00:14;;;;;;;10.13;4.32;;;;;;;32.63;45.03;100514.06;2086898;28;20087;-73
2022/07/03 05:01:37;;;;;;;10.43;4.07;;;;;;;32.64;45.09;100529.47;2103201;28;20130;-73
2022/07/03 05:03:01;;;;;;;10.27;3.67;;;;;;;32.79;44.50;100522.81;2110361;28;20224;-73
2022/07/03 05:04:22;;;;;;;16.83;4.20;;;;;;;33.00;44.23;100527.53;2109870;28;20485;-73
2022/07/03 05:05:45;;;;;;;10.95;3.97;;;;;;;33.23;44.25;100523.78;2120142;27;20449;-73
2022/07/03 05:07:07;;;;;;;10.45;3.33;;;;;;;33.46;43.80;100514.56;2106157;28;20047;-74
2022/07/03 05:08:30;;;;;;;12.52;4.13;;;;;;;33.73;43.34;100525.09;2120061;27;20391;-73
2022/07/03 05:09:52;;;;;;;13.05;3.92;;;;;;;33.90;43.01;100519.03;2112186;27;20071;-73
2022/07/03 05:11:15;;;;;;;10.63;3.80;;;;;;;34.07;42.76;100516.72;2100924;28;20055;-73
2022/07/03 05:12:36;;;;;;;9.65;4.38;;;;;;;34.23;42.45;100514.41;2105470;28;20551;-73
2022/07/03 05:13:59;;;;;;;8.05;3.83;;;;;;;34.23;42.43;100517.16;2117312;27;20108;-73
2022/07/03 05:15:21;;;;;;;8.60;3.22;;;;;;;34.24;42.13;100519.75;2107674;28;20051;-72
2022/07/03 05:16:43;;;;;;;13.40;4.15;;;;;;;34.28;42.19;100514.88;2108017;28;20044;-73
2022/07/03 05:18:06;;;;;;;12.13;4.18;;;;;;;34.43;42.08;100524.50;2106952;28;20143;-73
2022/07/03 05:19:28;;;;;;;12.80;3.85;;;;;;;34.58;41.80;100517.66;2110012;28;20143;-73
2022/07/03 05:20:50;;;;;;;8.07;4.00;;;;;;;34.65;41.75;100516.13;2107049;28;20040;-73
2022/07/03 05:22:13;;;;;;;10.20;3.80;;;;;;;34.77;41.56;100522.41;2110540;28;20060;-73
2022/07/03 05:23:35;;;;;;;16.40;3.42;;;;;;;34.89;41.08;100534.16;2108769;28;20082;-73
2022/07/03 05:24:58;;;;;;;11.02;3.97;;;;;;;34.87;41.12;100527.94;2109227;28;20040;-73
2022/07/03 05:26:20;;;;;;;9.77;3.33;;;;;;;34.97;40.93;100534.34;2114147;28;20070;-73
2022/07/03 05:27:42;;;;;;;13.27;3.70;;;;;;;35.13;40.45;100526.44;2100856;28;20142;-73
2022/07/03 05:29:04;;;;;;;12.75;4.13;;;;;;;35.23;40.43;100529.28;2109866;28;20504;-73
2022/07/03 05:30:27;;;;;;;11.35;4.60;;;;;;;35.32;40.21;100536.66;2109142;28;20040;-73
2022/07/03 05:31:49;;;;;;;8.25;3.17;;;;;;;35.41;39.95;100536.69;2103435;28;20139;-73
2022/07/03 05:33:13;;;;;;;11.43;3.55;;;;;;;35.49;40.01;100528.63;2107057;28;20071;-74
2022/07/03 05:34:36;;;;;;;10.70;3.67;;;;;;;35.49;39.99;100530.50;2104600;28;20147;-73
2022/07/03 05:35:58;;;;;;;10.25;3.45;;;;;;;35.60;39.72;100527.59;2103562;28;20051;-74
2022/07/03 05:37:20;;;;;;;10.95;3.92;;;;;;;35.77;39.23;100532.44;2097517;28;20075;-74
2022/07/03 05:40:22;;;;;;;7.75;3.40;;;;;;;36.09;39.08;100532.16;2107912;28;20509;-73
2022/07/03 05:41:43;;;;;;;12.38;3.92;;;;;;;36.16;38.71;100538.81;2104476;28;20098;-73
2022/07/03 05:43:06;;;;;;;10.63;3.83;;;;;;;36.27;38.58;100541.44;2107967;28;20056;-73
2022/07/03 05:44:27;;;;;;;9.10;3.55;;;;;;;36.33;38.27;100537.22;2105304;28;20071;-73
2022/07/03 05:45:49;;;;;;;13.57;3.63;;;;;;;36.45;38.08;100537.91;2109972;27;20549;-73
2022/07/03 05:47:13;;;;;;;12.35;3.67;;;;;;;36.59;37.80;100535.56;2107873;28;20575;-74
2022/07/03 05:48:37;;;;;;;8.52;3.40;;;;;;;36.71;37.38;100541.78;2111192;27;20075;-74
2022/07/03 05:49:59;;;;;;;12.98;4.10;;;;;;;36.80;37.50;100529.91;2106639;28;20214;-73
2022/07/03 05:51:20;;;;;;;10.27;4.35;;;;;;;36.93;36.89;100533.19;2109120;28;20059;-73
2022/07/03 05:52:43;;;;;;;11.90;4.18;;;;;;;36.97;36.95;100536.47;2103938;28;20134;-74
2022/07/03 05:54:04;;;;;;;10.55;3.58;;;;;;;37.06;36.70;100535.59;2096315;28;20058;-73
2022/07/03 05:55:27;;;;;;;9.75;3.80;;;;;;;37.09;36.75;100527.88;2107828;28;20667;-73
2022/07/03 05:56:49;;;;;;;9.90;3.50;;;;;;;37.17;36.78;100527.16;2093634;28;20128;-72
2022/07/03 05:58:11;;;;;;;8.65;3.75;;;;;;;37.19;36.53;100535.25;2099877;28;20074;-73
2022/07/03 05:59:34;;;;;;;12.52;3.30;;;;;;;37.14;36.56;100540.38;2102622;28;20044;-73
2022/07/03 06:00:56;;;;;;;13.50;3.63;;;;;;;37.22;36.68;100538.56;2104341;28;20678;-73
2022/07/03 06:02:19;;;;;;;9.82;4.10;;;;;;;37.26;36.60;100528.13;2109194;28;20114;-73
2022/07/03 06:03:43;;;;;;;8.02;3.70;;;;;;;37.25;36.44;100531.91;2109947;28;20696;-73
2022/07/03 06:05:06;;;;;;;13.80;3.85;;;;;;;37.27;36.43;100535.38;2110053;28;20070;-73
2022/07/03 06:06:28;;;;;;;6.68;3.22;;;;;;;37.33;36.48;100534.75;2110981;28;20047;-73
2022/07/03 06:07:51;;;;;;;9.68;3.65;;;;;;;37.39;36.41;100536.88;2109742;28;20039;-73
2022/07/03 06:09:13;;;;;;;9.80;3.67;;;;;;;37.40;36.20;100534.00;2118845;27;20433;-73
2022/07/03 06:10:35;;;;;;;11.40;3.78;;;;;;;37.34;36.20;100529.09;2103799;28;20086;-73
2022/07/03 06:11:58;;;;;;;10.30;3.95;;;;;;;37.10;36.56;100535.13;2112720;27;20047;-73
2022/07/03 06:13:20;;;;;;;10.20;3.60;;;;;;;37.01;36.56;100537.94;2111589;28;20077;-73
2022/07/03 06:14:43;;;;;;;11.18;4.18;;;;;;;37.08;36.52;100537.19;2109078;28;20048;-72
2022/07/03 06:16:04;;;;;;;14.65;4.22;;;;;;;37.17;36.33;100534.53;2110965;28;20518;-73
2022/07/03 06:17:26;;;;;;;;;;;;;;;37.14;36.60;100537.63;2111260;28;20597;-74
2022/07/03 06:18:50;;;;;;;12.40;3.45;;;;;;;37.27;36.45;100532.63;2110674;28;19973;-73
2022/07/03 06:20:13;;;;;;;12.05;4.53;;;;;;;37.35;36.08;100532.72;2106091;28;20040;-73
2022/07/03 06:21:36;;;;;;;13.15;3.75;;;;;;;37.27;36.19;100524.34;2108004;28;20190;-74
2022/07/03 06:22:58;;;;;;;9.25;3.80;;;;;;;37.31;36.29;100532.16;2107551;28;20654;-73
2022/07/03 06:24:19;;;;;;;11.10;3.85;;;;;;;37.42;36.15;100531.06;2106698;28;20606;-74
2022/07/03 06:25:42;;;;;;;10.13;3.88;;;;;;;37.39;35.83;100528.63;2110761;28;20067;-74
2022/07/03 06:27:04;;;;;;;8.05;3.22;;;;;;;37.25;35.94;100535.50;2110090;28;20333;-73
2022/07/03 06:28:27;;;;;;;15.32;3.67;;;;;;;37.10;36.04;100525.97;2109599;28;20039;-73
2022/07/03 06:29:50;;;;;;;13.73;3.95;;;;;;;36.89;36.11;100544.66;2109668;28;20170;-73
2022/07/03 06:31:13;;;;;;;10.20;3.85;;;;;;;36.67;36.41;100529.38;2106256;28;20076;-73
2022/07/03 06:32:36;;;;;;;10.52;3.60;;;;;;;36.80;36.41;100535.41;2107436;27;20134;-74
2022/07/03 06:34:00;;;;;;;10.60;3.75;;;;;;;37.01;35.69;100544.31;2110062;28;20082;-73